createdAt,value
2023-12-27T00:01:07.655Z,101432.95
2023-12-27T00:03:49.613Z,101436.56
2023-12-27T00:06:19.826Z,101436.73
2023-12-27T00:08:48.613Z,101434.70
2023-12-27T00:11:19.241Z,101437.04
2023-12-27T00:13:47.944Z,101429.46
2023-12-27T00:16:16.241Z,101430.37
2023-12-27T00:18:44.696Z,101426.57
2023-12-27T00:21:14.695Z,101421.38
2023-12-27T00:23:43.204Z,101419.30
2023-12-27T00:26:11.937Z,101416.02
2023-12-27T00:28:41.317Z,101408.19
2023-12-27T00:31:09.848Z,101411.48
2023-12-27T00:33:38.738Z,101414.96
2023-12-27T00:36:09.251Z,101415.30
2023-12-27T00:38:39.296Z,101417.72
2023-12-27T00:41:08.717Z,101420.48
2023-12-27T00:43:37.011Z,101423.96
2023-12-27T00:46:07.790Z,101424.48
2023-12-27T00:48:36.880Z,101421.69
2023-12-27T00:51:06.911Z,101420.98
2023-12-27T00:53:35.297Z,101422.89
2023-12-27T00:56:03.637Z,101425.14
2023-12-27T00:58:32.077Z,101428.58
2023-12-27T01:01:00.464Z,101430.11
2023-12-27T01:03:29.068Z,101430.80
2023-12-27T01:05:57.833Z,101425.73
2023-12-27T01:08:26.601Z,101427.10
2023-12-27T01:10:55.231Z,101436.86
2023-12-27T01:13:23.557Z,101438.09
2023-12-27T01:15:52.002Z,101437.94
2023-12-27T01:18:21.005Z,101434.82
2023-12-27T01:20:50.330Z,101433.60
2023-12-27T01:23:18.716Z,101441.80
2023-12-27T01:25:47.093Z,101447.23
2023-12-27T01:28:15.984Z,101445.70
2023-12-27T01:30:44.589Z,101467.30
2023-12-27T01:33:13.580Z,101485.20
2023-12-27T01:35:42.049Z,101500.02
2023-12-27T01:38:10.363Z,101507.49
2023-12-27T01:40:38.697Z,101524.20
2023-12-27T01:43:07.146Z,101528.73
2023-12-27T01:45:35.579Z,101529.77
2023-12-27T01:48:05.245Z,101537.92
2023-12-27T01:50:33.980Z,101546.96
2023-12-27T01:53:03.682Z,101554.97
2023-12-27T01:55:33.610Z,101574.80
2023-12-27T01:58:03.300Z,101574.43
2023-12-27T02:00:31.859Z,101559.98
2023-12-27T02:03:00.552Z,101562.23
2023-12-27T02:05:29.309Z,101561.70
2023-12-27T02:07:58.550Z,101559.94
2023-12-27T02:10:28.680Z,101556.45
2023-12-27T02:12:57.050Z,101551.38
2023-12-27T02:15:25.490Z,101553.77
2023-12-27T02:17:54.272Z,101553.21
2023-12-27T02:20:23.782Z,101560.96
2023-12-27T02:22:54.560Z,101561.60
2023-12-27T02:25:23.663Z,101565.36
2023-12-27T02:27:52.032Z,101564.45
2023-12-27T02:30:22.765Z,101556.78
2023-12-27T02:32:52.903Z,101570.95
2023-12-27T02:35:21.792Z,101579.67
2023-12-27T02:37:50.301Z,101599.02
2023-12-27T02:40:18.863Z,101605.02
2023-12-27T02:42:48.243Z,101602.52
2023-12-27T02:45:16.890Z,101611.17
2023-12-27T02:47:45.928Z,101618.14
2023-12-27T02:50:14.721Z,101621.44
2023-12-27T02:52:43.211Z,101623.66
2023-12-27T02:55:11.892Z,101629.71
2023-12-27T02:57:40.457Z,101631.40
2023-12-27T03:00:10.100Z,101634.50
2023-12-27T03:02:38.583Z,101634.30
2023-12-27T03:05:07.567Z,101630.59
2023-12-27T03:07:35.879Z,101622.89
2023-12-27T03:10:05.274Z,101614.83
2023-12-27T03:12:34.333Z,101615.42
2023-12-27T03:15:02.806Z,101620.02
2023-12-27T03:17:31.501Z,101627.08
2023-12-27T03:20:00.085Z,101629.98
2023-12-27T03:22:29.195Z,101641.35
2023-12-27T03:24:57.746Z,101650.77
2023-12-27T03:27:26.164Z,101653.29
2023-12-27T03:29:54.886Z,101653.73
2023-12-27T03:32:25.885Z,101658.73
2023-12-27T03:34:54.238Z,101672.23
2023-12-27T03:37:22.633Z,101675.71
2023-12-27T03:39:52.837Z,101673.47
2023-12-27T03:42:21.480Z,101683.50
2023-12-27T03:44:54.610Z,101690.21
2023-12-27T03:47:24.351Z,101694.31
2023-12-27T03:49:52.839Z,101700.65
2023-12-27T03:52:21.462Z,101711.15
2023-12-27T03:54:50.685Z,101719.08
2023-12-27T03:57:19.112Z,101711.73
2023-12-27T03:59:47.590Z,101720.67
2023-12-27T04:02:17.149Z,101723.05
2023-12-27T04:04:48.253Z,101720.38
2023-12-27T04:07:16.777Z,101727.54
2023-12-27T04:09:45.459Z,101730.36
2023-12-27T04:12:13.928Z,101741.53
2023-12-27T04:14:42.177Z,101734.52
2023-12-27T04:17:10.490Z,101734.65
2023-12-27T04:19:38.920Z,101743.77
2023-12-27T04:22:09.746Z,101752.02
2023-12-27T04:24:38.207Z,101760.44
2023-12-27T04:27:06.797Z,101764.91
2023-12-27T04:29:35.253Z,101764.38
2023-12-27T04:32:03.837Z,101769.44
2023-12-27T04:34:32.160Z,101776.49
2023-12-27T04:37:02.042Z,101773.70
2023-12-27T04:39:30.739Z,101767.08
2023-12-27T04:41:59.232Z,101769.80
2023-12-27T04:44:27.780Z,101775.44
2023-12-27T04:46:58.012Z,101781.08
2023-12-27T04:49:26.602Z,101781.95
2023-12-27T04:51:55.178Z,101773.25
2023-12-27T04:54:24.716Z,101778.56
2023-12-27T04:56:56.597Z,101784.38
2023-12-27T04:59:25.342Z,101781.37
2023-12-27T05:01:54.639Z,101777.33
2023-12-27T05:04:24.729Z,101781.27
2023-12-27T05:06:53.336Z,101784.68
2023-12-27T05:09:21.841Z,101797.58
2023-12-27T05:11:50.931Z,101799.39
2023-12-27T05:14:19.096Z,101800.51
2023-12-27T05:16:48.183Z,101808.23
2023-12-27T05:19:18.194Z,101816.69
2023-12-27T05:21:47.909Z,101812.36
2023-12-27T05:24:16.405Z,101808.48
2023-12-27T05:26:45.175Z,101819.81
2023-12-27T05:29:13.754Z,101825.95
2023-12-27T05:31:42.146Z,101832.77
2023-12-27T05:34:10.768Z,101837.84
2023-12-27T05:36:39.346Z,101838.75
2023-12-27T05:39:07.941Z,101838.51
2023-12-27T05:41:36.794Z,101842.77
2023-12-27T05:44:05.258Z,101850.68
2023-12-27T05:46:36.838Z,101855.08
2023-12-27T05:49:05.430Z,101853.81
2023-12-27T05:51:34.821Z,101856.71
2023-12-27T05:54:04.525Z,101865.91
2023-12-27T05:56:33.708Z,101870.27
2023-12-27T05:59:02.284Z,101875.13
2023-12-27T06:01:30.808Z,101886.02
2023-12-27T06:04:00.756Z,101893.64
2023-12-27T06:06:29.200Z,101900.91
2023-12-27T06:08:57.678Z,101906.80
2023-12-27T06:11:26.341Z,101910.73
2023-12-27T06:13:54.817Z,101905.85
2023-12-27T06:16:23.093Z,101906.65
2023-12-27T06:18:56.055Z,101910.70
2023-12-27T06:21:24.798Z,101906.95
2023-12-27T06:23:53.179Z,101909.46
2023-12-27T06:26:22.039Z,101911.13
2023-12-27T06:28:50.423Z,101916.85
2023-12-27T06:31:19.041Z,101919.77
2023-12-27T06:33:47.618Z,101923.23
2023-12-27T06:36:16.284Z,101921.89
2023-12-27T06:38:47.733Z,101922.77
2023-12-27T06:41:17.837Z,101929.59
2023-12-27T06:43:46.620Z,101931.83
2023-12-27T06:46:14.899Z,101930.73
2023-12-27T06:48:43.458Z,101932.19
2023-12-27T06:51:15.093Z,101934.59
2023-12-27T06:53:43.518Z,101933.84
2023-12-27T06:56:12.317Z,101945.67
2023-12-27T06:58:40.531Z,101952.36
2023-12-27T07:01:11.320Z,101948.88
2023-12-27T07:03:39.997Z,101956.41
2023-12-27T07:06:09.295Z,101964.75
2023-12-27T07:08:37.890Z,101965.38
2023-12-27T07:11:06.386Z,101961.41
2023-12-27T07:13:34.966Z,101963.96
2023-12-27T07:16:03.815Z,101974.09
2023-12-27T07:18:32.409Z,101980.29
2023-12-27T07:21:01.061Z,101982.66
2023-12-27T07:23:29.494Z,101984.56
2023-12-27T07:25:58.286Z,101985.58
2023-12-27T07:28:27.551Z,101982.88
2023-12-27T07:30:56.044Z,101989.51
2023-12-27T07:33:24.788Z,101991.14
2023-12-27T07:35:53.767Z,101995.23
2023-12-27T07:38:22.447Z,102000.64
2023-12-27T07:40:50.805Z,102001.45
2023-12-27T07:43:22.058Z,102005.58
2023-12-27T07:45:50.430Z,102011.17
2023-12-27T07:48:19.359Z,102012.67
2023-12-27T07:50:47.917Z,102013.27
2023-12-27T07:53:16.389Z,102015.64
2023-12-27T07:55:44.786Z,102015.61
2023-12-27T07:58:13.244Z,102022.23
2023-12-27T08:00:42.083Z,102018.86
2023-12-27T08:03:10.732Z,102017.16
2023-12-27T08:05:39.944Z,102014.49
2023-12-27T08:08:08.495Z,102016.68
2023-12-27T08:10:37.631Z,102017.39
2023-12-27T08:13:09.470Z,102024.60
2023-12-27T08:15:38.183Z,102028.49
2023-12-27T08:18:06.858Z,102038.20
2023-12-27T08:20:35.636Z,102037.27
2023-12-27T08:23:04.569Z,102038.10
2023-12-27T08:25:32.994Z,102047.69
2023-12-27T08:28:02.493Z,102056.70
2023-12-27T08:30:31.040Z,102059.33
2023-12-27T08:33:01.627Z,102065.11
2023-12-27T08:35:30.140Z,102070.61
2023-12-27T08:37:58.819Z,102069.74
2023-12-27T08:40:27.360Z,102077.21
2023-12-27T08:42:56.604Z,102081.36
2023-12-27T08:45:25.303Z,102080.27
2023-12-27T08:47:53.669Z,102084.52
2023-12-27T08:50:22.418Z,102082.15
2023-12-27T08:52:50.793Z,102080.00
2023-12-27T08:55:19.168Z,102074.36
2023-12-27T08:57:47.711Z,102069.95
2023-12-27T09:00:16.787Z,102067.06
2023-12-27T09:02:46.277Z,102062.54
2023-12-27T09:05:14.622Z,102062.03
2023-12-27T09:07:43.106Z,102063.95
2023-12-27T09:10:12.248Z,102059.33
2023-12-27T09:12:40.864Z,102054.14
2023-12-27T09:15:10.106Z,102052.55
2023-12-27T09:17:38.603Z,102054.80
2023-12-27T09:20:09.714Z,102054.55
2023-12-27T09:22:38.273Z,102052.75
2023-12-27T09:25:07.313Z,102051.17
2023-12-27T09:27:35.688Z,102052.91
2023-12-27T09:30:05.307Z,102050.79
2023-12-27T09:32:33.902Z,102039.45
2023-12-27T09:35:04.215Z,102035.61
2023-12-27T09:37:32.992Z,102035.63
2023-12-27T09:40:01.682Z,102031.77
2023-12-27T09:42:34.420Z,102028.58
2023-12-27T09:45:09.803Z,102023.92
2023-12-27T09:47:41.292Z,102021.23
2023-12-27T09:50:10.458Z,102020.79
2023-12-27T09:52:41.156Z,102021.48
2023-12-27T09:55:10.001Z,102024.91
2023-12-27T09:57:39.099Z,102023.05
2023-12-27T10:00:11.141Z,102015.84
2023-12-27T10:02:43.522Z,102021.88
2023-12-27T10:05:27.989Z,102024.81
2023-12-27T10:07:58.277Z,102027.26
2023-12-27T10:10:28.757Z,102028.07
2023-12-27T10:13:04.029Z,102024.98
2023-12-27T10:15:32.781Z,102022.13
2023-12-27T10:18:01.544Z,102020.21
2023-12-27T10:20:43.509Z,102022.42
2023-12-27T10:23:12.021Z,102022.46
2023-12-27T10:25:41.746Z,102026.52
2023-12-27T10:28:10.610Z,102027.14
2023-12-27T10:30:38.976Z,102026.65
2023-12-27T10:33:08.013Z,102024.02
2023-12-27T10:35:39.576Z,102020.52
2023-12-27T10:38:08.597Z,102019.02
2023-12-27T10:40:41.091Z,102020.88
2023-12-27T10:43:10.290Z,102025.41
2023-12-27T10:45:39.467Z,102031.86
2023-12-27T10:48:11.417Z,102036.45
2023-12-27T10:50:40.769Z,102032.23
2023-12-27T10:53:10.679Z,102030.70
2023-12-27T10:55:39.796Z,102031.97
2023-12-27T10:58:17.389Z,102026.64
2023-12-27T11:00:48.026Z,102033.55
2023-12-27T11:03:19.978Z,102032.35
2023-12-27T11:05:49.691Z,102037.89
2023-12-27T11:08:21.855Z,102038.25
2023-12-27T11:10:50.991Z,102039.27
2023-12-27T11:13:25.639Z,102039.00
2023-12-27T11:15:57.338Z,102036.75
2023-12-27T11:18:26.828Z,102043.31
2023-12-27T11:20:58.393Z,102045.48
2023-12-27T11:23:27.367Z,102051.54
2023-12-27T11:25:57.745Z,102053.25
2023-12-27T11:28:26.663Z,102052.54
2023-12-27T11:30:56.295Z,102051.30
2023-12-27T11:33:28.369Z,102052.67
2023-12-27T11:35:59.381Z,102057.27
2023-12-27T11:38:27.982Z,102058.34
2023-12-27T11:41:02.023Z,102060.13
2023-12-27T11:43:49.329Z,102055.14
2023-12-27T11:46:26.870Z,102057.48
2023-12-27T11:48:56.045Z,102060.21
2023-12-27T11:51:35.819Z,102060.67
2023-12-27T11:54:07.675Z,102065.84
2023-12-27T11:56:40.159Z,102065.48
2023-12-27T11:59:12.693Z,102065.34
2023-12-27T12:01:43.017Z,102068.20
2023-12-27T12:04:38.952Z,102072.64
2023-12-27T12:07:19.585Z,102073.14
2023-12-27T12:09:48.405Z,102067.42
2023-12-27T12:12:16.847Z,102068.83
2023-12-27T12:14:46.275Z,102076.84
2023-12-27T12:17:15.348Z,102075.72
2023-12-27T12:19:43.932Z,102075.28
2023-12-27T12:22:15.322Z,102073.75
2023-12-27T12:24:47.799Z,102077.77
2023-12-27T12:27:17.994Z,102080.48
2023-12-27T12:29:46.599Z,102080.71
2023-12-27T12:32:16.459Z,102086.37
2023-12-27T12:34:45.508Z,102084.99
2023-12-27T12:37:16.101Z,102086.02
2023-12-27T12:39:48.055Z,102099.94
2023-12-27T12:42:16.762Z,102107.45
2023-12-27T12:44:46.261Z,102110.88
2023-12-27T12:47:16.300Z,102113.21
2023-12-27T12:49:44.983Z,102119.85
2023-12-27T12:52:13.359Z,102122.79
2023-12-27T12:54:42.165Z,102130.72
2023-12-27T12:57:10.905Z,102140.84
2023-12-27T12:59:42.784Z,102143.52
2023-12-27T13:02:11.880Z,102144.63
2023-12-27T13:04:40.623Z,102145.81
2023-12-27T13:07:09.237Z,102147.21
2023-12-27T13:10:01.819Z,102148.70
2023-12-27T13:12:31.723Z,102149.61
2023-12-27T13:15:00.251Z,102151.48
2023-12-27T13:17:29.020Z,102152.70
2023-12-27T13:19:57.741Z,102157.73
2023-12-27T13:22:26.196Z,102165.64
2023-12-27T13:24:55.039Z,102169.59
2023-12-27T13:27:23.510Z,102175.11
2023-12-27T13:29:51.998Z,102181.03
2023-12-27T13:32:21.004Z,102178.27
2023-12-27T13:34:49.413Z,102181.13
2023-12-27T13:37:20.489Z,102183.89
2023-12-27T13:39:49.571Z,102185.47
2023-12-27T13:42:17.889Z,102188.30
2023-12-27T13:44:46.263Z,102194.89
2023-12-27T13:47:14.631Z,102202.08
2023-12-27T13:49:44.841Z,102193.64
2023-12-27T13:52:13.734Z,102192.94
2023-12-27T13:54:42.356Z,102196.16
2023-12-27T13:57:10.706Z,102198.94
2023-12-27T13:59:41.044Z,102202.33
2023-12-27T14:02:09.603Z,102202.90
2023-12-27T14:04:38.334Z,102206.08
2023-12-27T14:07:06.717Z,102210.55
2023-12-27T14:09:35.930Z,102217.86
2023-12-27T14:12:04.671Z,102221.65
2023-12-27T14:14:33.141Z,102227.62
2023-12-27T14:17:01.544Z,102233.41
2023-12-27T14:19:33.076Z,102240.21
2023-12-27T14:22:01.868Z,102246.02
2023-12-27T14:24:32.957Z,102252.59
2023-12-27T14:27:01.315Z,102258.81
2023-12-27T14:29:30.597Z,102265.89
2023-12-27T14:31:59.169Z,102275.15
2023-12-27T14:34:27.954Z,102285.91
2023-12-27T14:36:56.446Z,102292.64
2023-12-27T14:39:27.386Z,102294.23
2023-12-27T14:41:56.169Z,102297.43
2023-12-27T14:44:24.651Z,102303.02
2023-12-27T14:46:54.931Z,102304.20
2023-12-27T14:49:23.385Z,102305.02
2023-12-27T14:51:51.948Z,102308.25
2023-12-27T14:54:24.068Z,102315.46
2023-12-27T14:56:54.224Z,102322.83
2023-12-27T14:59:24.104Z,102325.98
2023-12-27T15:01:54.333Z,102330.01
2023-12-27T15:04:24.572Z,102340.80
2023-12-27T15:06:53.199Z,102350.23
2023-12-27T15:09:24.220Z,102356.01
2023-12-27T15:11:53.001Z,102366.47
2023-12-27T15:14:22.115Z,102370.14
2023-12-27T15:16:51.943Z,102378.14
2023-12-27T15:19:20.411Z,102382.45
2023-12-27T15:21:49.182Z,102386.44
2023-12-27T15:24:17.787Z,102391.08
2023-12-27T15:26:46.246Z,102397.28
2023-12-27T15:29:15.549Z,102399.35
2023-12-27T15:31:45.413Z,102399.77
2023-12-27T15:34:14.477Z,102401.73
2023-12-27T15:36:43.014Z,102402.15
2023-12-27T15:39:11.484Z,102400.77
2023-12-27T15:41:39.902Z,102404.84
2023-12-27T15:44:08.903Z,102411.18
2023-12-27T15:46:37.487Z,102410.74
2023-12-27T15:49:07.706Z,102410.20
2023-12-27T15:51:37.407Z,102417.46
2023-12-27T15:54:07.855Z,102424.72
2023-12-27T15:56:46.416Z,102427.64
2023-12-27T15:59:15.169Z,102429.46
2023-12-27T16:01:46.553Z,102431.38
2023-12-27T16:04:19.402Z,102439.38
2023-12-27T16:06:48.856Z,102454.58
2023-12-27T16:09:18.225Z,102459.96
2023-12-27T16:11:46.757Z,102463.75
2023-12-27T16:14:15.133Z,102472.92
2023-12-27T16:16:44.274Z,102474.26
2023-12-27T16:19:14.035Z,102478.21
2023-12-27T16:21:43.820Z,102478.66
2023-12-27T16:24:12.580Z,102475.81
2023-12-27T16:26:40.940Z,102483.11
2023-12-27T16:29:09.307Z,102488.69
2023-12-27T16:31:37.995Z,102486.46
2023-12-27T16:34:06.877Z,102493.38
2023-12-27T16:36:35.395Z,102501.04
2023-12-27T16:39:03.911Z,102505.45
2023-12-27T16:41:32.529Z,102508.47
2023-12-27T16:44:01.160Z,102512.13
2023-12-27T16:46:29.696Z,102512.41
2023-12-27T16:49:00.145Z,102513.91
2023-12-27T16:51:30.328Z,102514.30
2023-12-27T16:53:59.769Z,102518.16
2023-12-27T16:56:29.270Z,102522.86
2023-12-27T16:58:57.708Z,102522.88
2023-12-27T17:01:26.136Z,102528.52
2023-12-27T17:03:54.640Z,102532.35
2023-12-27T17:06:24.446Z,102534.78
2023-12-27T17:08:52.985Z,102540.86
2023-12-27T17:11:21.375Z,102546.16
2023-12-27T17:13:50.779Z,102546.60
2023-12-27T17:16:19.375Z,102541.17
2023-12-27T17:18:47.911Z,102544.33
2023-12-27T17:21:19.059Z,102551.42
2023-12-27T17:23:49.009Z,102560.50
2023-12-27T17:26:17.456Z,102567.30
2023-12-27T17:28:45.976Z,102566.55
2023-12-27T17:31:14.439Z,102567.13
2023-12-27T17:33:43.409Z,102569.63
2023-12-27T17:36:12.145Z,102569.80
2023-12-27T17:38:40.622Z,102574.39
2023-12-27T17:41:09.390Z,102574.75
2023-12-27T17:43:41.514Z,102580.59
2023-12-27T17:46:13.532Z,102583.81
2023-12-27T17:48:45.735Z,102585.41
2023-12-27T17:51:14.303Z,102587.09
2023-12-27T17:53:43.389Z,102589.91
2023-12-27T17:56:11.959Z,102590.85
2023-12-27T17:58:40.773Z,102592.11
2023-12-27T18:01:09.519Z,102594.00
2023-12-27T18:03:38.253Z,102597.44
2023-12-27T18:06:08.356Z,102598.84
2023-12-27T18:08:36.810Z,102604.77
2023-12-27T18:11:05.355Z,102609.32
2023-12-27T18:13:35.142Z,102614.29
2023-12-27T18:16:05.738Z,102617.83
2023-12-27T18:18:34.490Z,102628.64
2023-12-27T18:21:05.591Z,102636.31
2023-12-27T18:23:37.423Z,102642.47
2023-12-27T18:26:05.802Z,102642.85
2023-12-27T18:28:34.254Z,102639.68
2023-12-27T18:31:02.633Z,102641.61
2023-12-27T18:33:31.993Z,102640.42
2023-12-27T18:36:01.152Z,102638.80
2023-12-27T18:38:29.647Z,102639.21
2023-12-27T18:40:58.118Z,102645.23
2023-12-27T18:43:26.428Z,102650.86
2023-12-27T18:45:57.167Z,102656.30
2023-12-27T18:48:25.751Z,102666.73
2023-12-27T18:50:54.330Z,102668.23
2023-12-27T18:53:22.785Z,102673.27
2023-12-27T18:55:51.153Z,102678.27
2023-12-27T18:58:20.152Z,102683.38
2023-12-27T19:00:49.133Z,102685.94
2023-12-27T19:03:18.136Z,102689.38
2023-12-27T19:05:48.215Z,102691.16
2023-12-27T19:08:16.742Z,102693.96
2023-12-27T19:10:45.737Z,102695.09
2023-12-27T19:13:14.123Z,102702.30
2023-12-27T19:15:42.495Z,102708.08
2023-12-27T19:18:12.723Z,102712.71
2023-12-27T19:20:41.507Z,102719.33
2023-12-27T19:23:10.066Z,102719.58
2023-12-27T19:25:39.394Z,102717.14
2023-12-27T19:28:07.866Z,102719.02
2023-12-27T19:30:36.459Z,102722.42
2023-12-27T19:33:05.847Z,102723.55
2023-12-27T19:35:34.538Z,102728.49
2023-12-27T19:38:03.122Z,102735.34
2023-12-27T19:40:31.604Z,102735.53
2023-12-27T19:43:00.568Z,102737.20
2023-12-27T19:45:29.626Z,102738.66
2023-12-27T19:47:58.595Z,102745.91
2023-12-27T19:50:27.368Z,102757.32
2023-12-27T19:52:55.645Z,102761.19
2023-12-27T19:55:24.234Z,102763.60
2023-12-27T19:57:52.656Z,102766.20
2023-12-27T20:00:21.300Z,102770.76
2023-12-27T20:02:50.092Z,102782.96
2023-12-27T20:05:18.640Z,102787.73
2023-12-27T20:07:46.988Z,102789.06
2023-12-27T20:10:15.535Z,102787.48
2023-12-27T20:12:44.083Z,102792.38
2023-12-27T20:15:12.857Z,102796.86
2023-12-27T20:17:41.386Z,102798.73
2023-12-27T20:20:10.384Z,102801.15
2023-12-27T20:22:38.871Z,102806.30
2023-12-27T20:25:08.081Z,102807.13
2023-12-27T20:27:36.876Z,102807.58
2023-12-27T20:30:06.622Z,102808.88
2023-12-27T20:32:35.782Z,102808.73
2023-12-27T20:35:05.369Z,102809.06
2023-12-27T20:37:33.900Z,102817.33
2023-12-27T20:40:02.547Z,102819.22
2023-12-27T20:42:31.173Z,102820.02
2023-12-27T20:44:59.906Z,102825.41
2023-12-27T20:47:28.412Z,102828.33
2023-12-27T20:49:57.138Z,102834.26
2023-12-27T20:52:26.109Z,102841.58
2023-12-27T20:54:55.276Z,102837.52
2023-12-27T20:57:24.413Z,102843.91
2023-12-27T20:59:52.972Z,102846.89
2023-12-27T21:02:21.424Z,102852.55
2023-12-27T21:04:50.000Z,102852.58
2023-12-27T21:07:19.225Z,102855.71
2023-12-27T21:09:47.861Z,102857.13
2023-12-27T21:12:16.802Z,102858.39
2023-12-27T21:14:46.383Z,102859.34
2023-12-27T21:17:15.499Z,102863.65
2023-12-27T21:19:44.713Z,102863.08
2023-12-27T21:22:13.502Z,102869.86
2023-12-27T21:24:42.082Z,102874.56
2023-12-27T21:27:10.761Z,102880.12
2023-12-27T21:29:39.448Z,102882.67
2023-12-27T21:32:07.914Z,102884.02
2023-12-27T21:34:36.334Z,102880.69
2023-12-27T21:37:05.564Z,102881.15
2023-12-27T21:39:34.654Z,102882.65
2023-12-27T21:42:04.405Z,102882.73
2023-12-27T21:44:34.215Z,102885.06
2023-12-27T21:47:02.988Z,102882.39
2023-12-27T21:49:31.519Z,102879.79
2023-12-27T21:52:00.020Z,102877.30
2023-12-27T21:54:28.677Z,102881.53
2023-12-27T21:56:57.356Z,102883.30
2023-12-27T21:59:25.799Z,102887.43
2023-12-27T22:01:54.366Z,102890.50
2023-12-27T22:04:22.737Z,102894.75
2023-12-27T22:06:51.345Z,102893.23
2023-12-27T22:09:20.074Z,102893.45
2023-12-27T22:11:48.634Z,102898.00
2023-12-27T22:14:18.437Z,102899.32
2023-12-27T22:16:50.126Z,102894.69
2023-12-27T22:19:18.936Z,102893.79
2023-12-27T22:21:50.533Z,102898.08
2023-12-27T22:24:19.045Z,102901.41
2023-12-27T22:26:47.521Z,102899.77
2023-12-27T22:29:17.124Z,102903.81
2023-12-27T22:31:45.687Z,102906.05
2023-12-27T22:34:15.813Z,102902.94
2023-12-27T22:36:44.470Z,102905.35
2023-12-27T22:39:13.129Z,102907.71
2023-12-27T22:41:41.575Z,102905.52
2023-12-27T22:44:10.142Z,102908.06
2023-12-27T22:46:38.758Z,102906.94
2023-12-27T22:49:08.373Z,102907.88
2023-12-27T22:51:37.654Z,102907.14
2023-12-27T22:54:06.636Z,102913.27
2023-12-27T22:56:35.221Z,102918.45
2023-12-27T22:59:03.606Z,102924.21
2023-12-27T23:01:32.330Z,102922.73
2023-12-27T23:04:00.910Z,102924.52
2023-12-27T23:06:29.433Z,102926.70
2023-12-27T23:09:00.137Z,102928.13
2023-12-27T23:11:28.462Z,102933.06
2023-12-27T23:13:56.916Z,102936.73
2023-12-27T23:16:25.834Z,102942.58
2023-12-27T23:18:54.542Z,102945.48
2023-12-27T23:21:23.102Z,102952.71
2023-12-27T23:23:51.688Z,102955.80
2023-12-27T23:26:20.064Z,102953.96
2023-12-27T23:28:49.875Z,102952.85
2023-12-27T23:31:18.359Z,102952.66
2023-12-27T23:33:47.367Z,102951.27
2023-12-27T23:36:15.852Z,102954.85
2023-12-27T23:38:44.137Z,102958.36
2023-12-27T23:41:12.580Z,102965.95
2023-12-27T23:43:42.956Z,102969.95
2023-12-27T23:46:11.389Z,102971.31
2023-12-27T23:48:39.998Z,102980.04
2023-12-27T23:51:08.870Z,102984.05
2023-12-27T23:53:37.566Z,102984.75
2023-12-27T23:56:06.252Z,102987.01
2023-12-27T23:58:34.713Z,102988.61
